Time;durP1;ratioP1;P1;durP2;ratioP2;P2;SDS_P1;SDS_P2;PMS_P1;PMS_P2;Temp;Humidity;BMP_temperature;BMP_pressure;BME280_temperature;BME280_humidity;BME280_pressure;Samples;Min_cycle;Max_cycle;Signal;HPM_P1;HPM_P2
2022/12/25 00:02:57;;;;;;;63.08;29.48;;;;;;;2.97;100.00;99180.79;4253977;83;21078;-89
2022/12/25 00:08:59;;;;;;;51.75;26.27;;;;;;;2.96;100.00;99187.87;4256253;83;21101;-89
2022/12/25 00:15:01;;;;;;;67.90;31.25;;;;;;;2.85;100.00;99196.07;4248943;83;21034;-89
2022/12/25 00:21:08;;;;;;;61.85;29.98;;;;;;;2.89;100.00;99188.34;4258552;83;21625;-89
2022/12/25 04:36:08;;;;;;;44.25;25.48;;;;;;;2.92;100.00;99361.31;4165499;84;21047;-90
2022/12/25 04:42:10;;;;;;;38.75;22.40;;;;;;;2.85;100.00;99368.53;4184391;83;21372;-90
2022/12/25 04:48:14;;;;;;;39.40;22.15;;;;;;;2.77;100.00;99378.00;4231989;83;21001;-90
2022/12/25 04:54:15;;;;;;;43.17;22.45;;;;;;;2.72;100.00;99393.00;4161221;84;21087;-89
2022/12/25 05:00:17;;;;;;;45.67;25.70;;;;;;;2.75;100.00;99391.83;4155397;84;21106;-90
2022/12/25 05:06:19;;;;;;;49.95;26.95;;;;;;;2.89;100.00;99403.31;4258368;82;21057;-89
2022/12/25 05:12:21;;;;;;;44.80;25.80;;;;;;;2.99;100.00;99404.94;4258553;82;21120;-88
2022/12/25 05:18:22;;;;;;;53.85;26.77;;;;;;;3.14;100.00;99402.57;4263775;82;22001;-90
2022/12/25 05:24:26;;;;;;;45.48;26.35;;;;;;;3.24;100.00;99398.77;4259351;82;21152;-93
2022/12/25 05:30:29;;;;;;;49.03;27.25;;;;;;;3.26;100.00;99401.93;4210276;82;22666;-90
2022/12/25 05:36:31;;;;;;;48.10;27.10;;;;;;;3.30;100.00;99412.92;4261885;82;21049;-90
2022/12/25 05:42:33;;;;;;;43.90;26.20;;;;;;;3.35;100.00;99404.11;4179141;83;21112;-90
2022/12/25 05:48:36;;;;;;;50.33;27.48;;;;;;;3.27;100.00;99413.55;4237566;82;21089;-91
2022/12/25 05:54:38;;;;;;;54.40;30.30;;;;;;;3.23;100.00;99422.86;4259496;82;21064;-91
2022/12/25 06:00:42;;;;;;;53.02;31.05;;;;;;;3.36;100.00;99434.11;4242933;82;21038;-90
2022/12/25 06:06:46;;;;;;;55.30;31.48;;;;;;;3.35;100.00;99449.30;4238743;82;21065;-92
2022/12/25 06:12:48;;;;;;;59.60;30.60;;;;;;;3.26;100.00;99456.62;4232989;82;22295;-91
2022/12/25 06:18:51;;;;;;;53.08;29.82;;;;;;;3.26;100.00;99460.10;4177110;84;21041;-88
2022/12/25 06:24:52;;;;;;;46.77;28.27;;;;;;;3.30;100.00;99447.55;4250972;82;21604;-90
2022/12/25 06:30:54;;;;;;;47.93;29.05;;;;;;;3.35;100.00;99460.13;4251191;82;21172;-90
2022/12/25 06:36:56;;;;;;;42.13;25.62;;;;;;;3.28;100.00;99469.25;4253428;82;21037;-90
2022/12/25 06:42:59;;;;;;;48.08;29.30;;;;;;;3.22;100.00;99476.73;4250811;82;21022;-90
2022/12/25 06:49:00;;;;;;;41.73;25.65;;;;;;;3.19;100.00;99481.42;4174986;84;21093;-89
2022/12/25 06:55:03;;;;;;;38.67;24.77;;;;;;;3.17;100.00;99497.97;4222896;82;21362;-91
2022/12/25 07:01:13;;;;;;;31.02;22.85;;;;;;;3.12;100.00;99510.28;4160568;84;22010;-91
2022/12/25 07:07:15;;;;;;;58.65;35.05;;;;;;;3.11;100.00;99528.18;4205798;83;21092;-91
2022/12/25 07:13:17;;;;;;;64.80;39.98;;;;;;;3.09;100.00;99524.98;4183823;83;21688;-90
2022/12/25 07:19:19;;;;;;;55.12;34.60;;;;;;;3.17;100.00;99539.09;4126466;84;21594;-90
2022/12/25 07:25:22;;;;;;;59.95;34.70;;;;;;;3.30;100.00;99544.97;4120235;85;21627;-92
2022/12/25 07:31:26;;;;;;;52.13;33.42;;;;;;;3.37;100.00;99566.16;4133288;85;21088;-89
2022/12/25 07:37:28;;;;;;;44.73;29.02;;;;;;;3.47;100.00;99578.03;4176534;84;21027;-92
2022/12/25 07:43:29;;;;;;;44.27;28.07;;;;;;;3.48;100.00;99590.48;4167920;84;21083;-92
2022/12/25 07:49:31;;;;;;;43.23;26.60;;;;;;;3.46;100.00;99587.28;4145112;84;21062;-91
2022/12/25 07:55:33;;;;;;;55.63;31.23;;;;;;;3.58;100.00;99598.29;4219086;83;21297;-90
2022/12/25 08:01:35;;;;;;;59.88;32.60;;;;;;;3.70;100.00;99597.92;4224406;83;21547;-91
2022/12/25 08:07:42;;;;;;;61.10;36.77;;;;;;;3.82;100.00;99621.13;4181187;84;21082;-91
2022/12/25 08:13:44;;;;;;;68.33;41.10;;;;;;;3.91;100.00;99612.48;4214986;83;21069;-92
2022/12/25 08:19:46;;;;;;;88.22;59.45;;;;;;;4.01;100.00;99617.58;4186224;84;21543;-92
2022/12/25 08:25:48;;;;;;;83.03;54.42;;;;;;;4.14;100.00;99609.06;4183087;84;21066;-90
2022/12/25 08:31:49;;;;;;;85.87;54.48;;;;;;;4.23;100.00;99609.86;4178475;84;21938;-92
2022/12/25 08:37:51;;;;;;;105.10;69.92;;;;;;;4.39;100.00;99610.44;4186375;84;21054;-91
2022/12/25 08:43:53;;;;;;;108.65;71.40;;;;;;;4.61;100.00;99618.95;4217488;83;21628;-91
2022/12/25 08:49:55;;;;;;;89.22;61.02;;;;;;;4.80;100.00;99608.56;4242133;83;21070;-90
2022/12/25 08:56:00;;;;;;;62.13;40.40;;;;;;;5.00;100.00;99607.07;4234191;83;21067;-91
2022/12/25 09:02:02;;;;;;;67.47;42.62;;;;;;;5.14;100.00;99594.91;4230711;83;21585;-90
2022/12/25 09:08:04;;;;;;;62.03;39.30;;;;;;;5.27;100.00;99587.67;4161946;84;21039;-92
2022/12/25 09:14:06;;;;;;;53.83;33.88;;;;;;;5.34;100.00;99601.55;4161663;84;21458;-90
2022/12/25 09:20:08;;;;;;;53.73;34.00;;;;;;;5.46;100.00;99627.45;4164205;84;21660;-93
2022/12/25 09:26:13;;;;;;;72.92;44.65;;;;;;;5.57;100.00;99639.55;4161431;84;21019;-91
2022/12/25 09:32:19;;;;;;;;;;;;;;;5.78;100.00;99643.13;4184589;83;21241;-91
2022/12/25 09:38:20;;;;;;;111.57;48.83;;;;;;;5.99;100.00;99646.16;4226825;83;20180;-92
2022/12/25 09:44:32;;;;;;;64.45;34.40;;;;;;;6.08;100.00;99642.00;4239838;83;21691;-92
2022/12/25 09:51:03;;;;;;;49.50;29.27;;;;;;;6.19;100.00;99659.53;4094758;85;21071;-92
2022/12/25 09:57:12;;;;;;;48.73;28.47;;;;;;;6.27;100.00;99662.75;4182229;83;21117;-93
2022/12/25 10:03:58;;;;;;;48.15;28.40;;;;;;;6.56;100.00;99649.12;4178306;83;21136;-91
2022/12/25 10:10:33;;;;;;;48.30;29.48;;;;;;;7.18;100.00;99660.69;4181686;84;21050;-92
2022/12/25 10:17:09;;;;;;;41.85;26.82;;;;;;;7.81;100.00;99656.59;4148010;84;21666;-92
2022/12/25 10:23:26;;;;;;;48.00;27.93;;;;;;;8.50;100.00;99654.50;4161376;84;21078;-92
2022/12/25 10:29:32;;;;;;;42.67;24.95;;;;;;;8.92;100.00;99652.99;4126231;84;21078;-90
2022/12/25 10:35:39;;;;;;;36.90;21.25;;;;;;;9.13;100.00;99647.32;4221309;83;21152;-92
2022/12/25 10:42:29;;;;;;;35.13;19.97;;;;;;;9.24;100.00;99625.15;4249238;83;21066;-91
2022/12/25 10:48:34;;;;;;;33.35;19.17;;;;;;;9.20;100.00;99628.37;4220647;83;21596;-90
2022/12/25 10:54:39;;;;;;;46.55;22.07;;;;;;;9.23;100.00;99629.84;4176771;83;21112;-93
2022/12/25 11:00:48;;;;;;;39.25;19.67;;;;;;;9.17;100.00;99628.52;4114694;85;21068;-91
2022/12/25 11:07:07;;;;;;;31.05;17.85;;;;;;;9.08;100.00;99607.97;4190385;84;21038;-92
2022/12/25 11:13:23;;;;;;;31.02;17.92;;;;;;;8.87;100.00;99597.83;4226510;83;21138;-89
2022/12/25 11:19:33;;;;;;;25.08;14.98;;;;;;;8.91;100.00;99584.48;4202679;83;21041;-93
2022/12/25 11:25:35;;;;;;;;;;;;;;;8.90;100.00;99581.55;4255432;83;21010;-90
2022/12/25 11:31:45;;;;;;;17.02;9.10;;;;;;;8.81;100.00;99578.75;4243454;83;20219;-90
2022/12/25 11:37:53;;;;;;;24.75;10.90;;;;;;;8.83;100.00;99579.20;4203816;84;21026;-90
2022/12/25 11:44:05;;;;;;;17.65;10.10;;;;;;;8.69;100.00;99576.86;4241116;83;21073;-89
2022/12/25 11:50:42;;;;;;;16.60;8.95;;;;;;;8.51;100.00;99562.50;4124155;84;21696;-91
2022/12/25 11:56:44;;;;;;;16.30;7.35;;;;;;;8.45;100.00;99577.53;4206405;82;21193;-89
2022/12/25 12:03:02;;;;;;;15.43;8.58;;;;;;;8.39;100.00;99587.11;4178970;84;21495;-90
2022/12/25 12:09:57;;;;;;;20.70;9.68;;;;;;;8.26;100.00;99584.19;4215840;83;21061;-91
2022/12/25 12:16:02;;;;;;;23.85;11.00;;;;;;;8.05;100.00;99572.04;4183376;84;21085;-89
2022/12/25 12:22:08;;;;;;;18.48;9.00;;;;;;;7.88;100.00;99562.20;4166420;84;21055;-90
2022/12/25 12:28:19;;;;;;;30.45;12.30;;;;;;;7.78;100.00;99561.30;4191658;82;21124;-90
2022/12/25 12:34:48;;;;;;;24.43;10.72;;;;;;;7.74;100.00;99568.58;4235568;83;21009;-90
2022/12/25 12:40:58;;;;;;;15.72;7.87;;;;;;;7.73;100.00;99571.64;4179493;83;21085;-92
2022/12/25 12:47:00;;;;;;;17.30;7.90;;;;;;;7.72;100.00;99568.70;4237600;83;21053;-92
2022/12/25 12:53:25;;;;;;;30.62;10.55;;;;;;;7.69;100.00;99561.99;4218638;83;21193;-91
2022/12/25 12:59:48;;;;;;;23.67;8.70;;;;;;;7.59;100.00;99569.84;4158816;84;21094;-92
2022/12/25 13:06:10;;;;;;;33.40;12.15;;;;;;;7.56;100.00;99562.34;4173814;83;21064;-89
2022/12/25 13:12:14;;;;;;;52.38;20.82;;;;;;;7.48;100.00;99551.80;4225216;83;21133;-90
2022/12/25 13:18:19;;;;;;;42.17;14.30;;;;;;;7.43;100.00;99553.94;4162445;84;21077;-92
2022/12/25 13:24:26;;;;;;;82.82;22.32;;;;;;;7.35;100.00;99543.39;4127192;84;21086;-91
2022/12/25 13:30:29;;;;;;;26.90;11.23;;;;;;;7.28;100.00;99543.73;4155982;83;21640;-91
2022/12/25 13:36:38;;;;;;;31.10;10.90;;;;;;;7.19;100.00;99556.08;4160178;84;21051;-93
2022/12/25 13:42:45;;;;;;;28.67;11.85;;;;;;;7.11;100.00;99567.86;4166519;84;21059;-90
2022/12/25 13:48:58;;;;;;;23.07;9.53;;;;;;;7.03;100.00;99549.70;4163132;84;21653;-93
2022/12/25 13:55:14;;;;;;;17.17;8.75;;;;;;;6.95;100.00;99552.53;4160418;84;21050;-93
2022/12/25 14:01:17;;;;;;;17.67;9.13;;;;;;;6.80;100.00;99557.24;4139607;84;21134;-92
2022/12/25 14:07:27;;;;;;;18.45;9.60;;;;;;;6.64;100.00;99550.87;4161635;84;21583;-92
2022/12/25 14:13:31;;;;;;;21.85;10.58;;;;;;;6.38;100.00;99564.15;4174580;83;21122;-91
2022/12/25 14:19:34;;;;;;;21.27;11.70;;;;;;;6.20;100.00;99561.33;4236829;83;21065;-92
2022/12/25 14:25:42;;;;;;;38.60;17.20;;;;;;;6.00;100.00;99552.61;4213767;83;21552;-91
2022/12/25 14:31:47;;;;;;;31.75;13.93;;;;;;;5.71;100.00;99540.41;4219011;83;21577;-92
2022/12/25 14:37:56;;;;;;;49.18;18.80;;;;;;;5.48;100.00;99551.31;4171251;83;22295;-90
2022/12/25 14:44:01;;;;;;;36.85;16.25;;;;;;;5.21;100.00;99553.69;4221557;81;21085;-92
2022/12/25 14:50:16;;;;;;;33.42;16.15;;;;;;;4.94;100.00;99558.17;4153235;83;21100;-90
2022/12/25 14:56:20;;;;;;;36.95;18.17;;;;;;;4.61;100.00;99560.11;4240576;81;21145;-92
2022/12/25 15:02:22;;;;;;;39.10;19.17;;;;;;;4.35;100.00;99551.19;4168454;84;21406;-93
2022/12/25 15:08:26;;;;;;;34.20;16.65;;;;;;;4.13;100.00;99530.27;4222402;83;21593;-92
2022/12/25 15:14:30;;;;;;;33.10;18.32;;;;;;;3.86;100.00;99527.31;4184705;84;21078;-91
2022/12/25 15:20:34;;;;;;;36.40;20.57;;;;;;;3.66;100.00;99550.95;4149624;84;21069;-91
2022/12/25 15:26:35;;;;;;;45.33;21.60;;;;;;;3.45;100.00;99545.06;4193575;84;21018;-93
2022/12/25 15:32:39;;;;;;;32.80;17.30;;;;;;;3.26;100.00;99558.86;4178859;84;21043;-93
2022/12/25 15:38:41;;;;;;;46.92;21.33;;;;;;;3.10;100.00;99573.94;4222100;83;21722;-90
2022/12/25 15:44:46;;;;;;;39.58;19.87;;;;;;;2.85;100.00;99578.09;4226883;83;21075;-94
2022/12/25 15:50:48;;;;;;;50.58;24.75;;;;;;;2.61;100.00;99584.95;4191997;84;21317;-93
2022/12/25 15:56:56;;;;;;;50.25;25.35;;;;;;;2.50;100.00;99579.01;4232630;83;22129;-92
2022/12/25 16:02:58;;;;;;;44.50;25.00;;;;;;;2.31;100.00;99574.34;4231056;83;21090;-92
2022/12/25 16:09:05;;;;;;;55.23;27.00;;;;;;;2.15;100.00;99557.42;4232473;83;21069;-94
2022/12/25 16:15:14;;;;;;;52.00;26.48;;;;;;;2.06;100.00;99537.66;4230194;83;21069;-92
2022/12/25 16:21:23;;;;;;;64.97;30.82;;;;;;;1.98;100.00;99544.59;4230903;83;21029;-91
2022/12/25 16:27:30;;;;;;;64.15;31.30;;;;;;;1.85;100.00;99526.53;4228940;83;21387;-94
2022/12/25 16:33:35;;;;;;;66.05;31.57;;;;;;;1.77;100.00;99511.63;4229336;83;21073;-92
2022/12/25 16:39:37;;;;;;;61.68;33.45;;;;;;;1.63;100.00;99510.87;4188799;84;21541;-94
2022/12/25 16:45:41;;;;;;;68.50;37.03;;;;;;;1.67;100.00;99511.84;4231766;83;21569;-93
2022/12/25 16:51:43;;;;;;;74.82;41.23;;;;;;;1.65;100.00;99510.80;4139152;84;21062;-92
2022/12/25 16:57:47;;;;;;;83.55;46.88;;;;;;;1.65;100.00;99514.84;4151072;84;21566;-92
2022/12/25 17:04:00;;;;;;;82.55;43.48;;;;;;;1.66;100.00;99542.64;4115509;85;21099;-93
2022/12/25 17:10:05;;;;;;;103.72;54.18;;;;;;;1.68;100.00;99536.40;4098916;85;21069;-92
2022/12/25 17:16:21;;;;;;;103.92;54.65;;;;;;;1.65;100.00;99526.98;4116858;85;21064;-93
2022/12/25 17:22:26;;;;;;;101.18;53.45;;;;;;;1.75;100.00;99515.98;4194464;83;21568;-92
2022/12/25 17:28:48;;;;;;;101.07;56.10;;;;;;;1.71;100.00;99502.05;4190338;83;21696;-91
2022/12/25 17:34:55;;;;;;;104.30;57.23;;;;;;;1.55;100.00;99501.02;4237684;83;21022;-93
2022/12/25 17:41:05;;;;;;;99.00;50.35;;;;;;;1.51;100.00;99489.80;4239096;83;21037;-94
2022/12/25 17:47:21;;;;;;;96.32;53.78;;;;;;;1.49;100.00;99472.56;4240469;83;21058;-92
2022/12/25 17:53:24;;;;;;;110.63;57.35;;;;;;;1.43;100.00;99446.80;4236857;83;21054;-92
2022/12/25 17:59:31;;;;;;;118.55;58.60;;;;;;;1.18;100.00;99448.70;4257909;82;21053;-92
2022/12/25 18:05:37;;;;;;;111.68;57.25;;;;;;;1.12;100.00;99451.27;4271615;82;21065;-94
2022/12/25 18:11:42;;;;;;;130.40;63.15;;;;;;;1.13;100.00;99443.42;4255941;82;21100;-91
2022/12/25 18:17:51;;;;;;;119.22;60.23;;;;;;;1.04;100.00;99449.28;4262989;82;21566;-92
2022/12/25 18:30:45;;;;;;;122.22;65.70;;;;;;;1.18;100.00;99452.75;4239718;82;21097;-93
2022/12/25 18:37:49;;;;;;;149.62;75.40;;;;;;;1.21;100.00;99458.89;4257357;82;21509;-91
2022/12/25 18:43:55;;;;;;;147.20;69.75;;;;;;;1.20;100.00;99451.91;4248623;82;21624;-92
2022/12/25 18:50:06;;;;;;;171.60;82.12;;;;;;;1.16;100.00;99461.69;4184303;84;21064;-92
2022/12/25 18:56:44;;;;;;;155.18;71.65;;;;;;;1.11;100.00;99467.18;4245103;82;21072;-91
2022/12/25 19:09:21;;;;;;;142.93;72.32;;;;;;;1.22;100.00;99463.74;4084803;85;21091;-88
2022/12/25 19:15:23;;;;;;;138.50;69.92;;;;;;;1.26;100.00;99446.65;4120730;85;21130;-89
2022/12/25 19:21:25;;;;;;;115.40;63.05;;;;;;;1.26;100.00;99450.70;4013946;87;21584;-88
2022/12/25 19:27:27;;;;;;;131.07;69.47;;;;;;;1.27;100.00;99437.98;4091888;85;21037;-88
2022/12/25 19:33:34;;;;;;;143.97;77.42;;;;;;;1.25;100.00;99434.81;4122069;85;21003;-88
2022/12/25 19:39:35;;;;;;;;;;;;;;;1.33;100.00;99434.10;4015483;86;21072;-90
2022/12/25 19:45:38;;;;;;;130.97;67.08;;;;;;;1.25;100.00;99440.98;4075941;85;20519;-88
2022/12/25 19:51:44;;;;;;;137.12;73.07;;;;;;;1.26;100.00;99432.36;4147292;83;21082;-88
2022/12/25 19:57:45;;;;;;;120.94;64.24;;;;;;;1.29;100.00;99439.84;3972066;82;9999592;-88
2022/12/25 20:03:47;;;;;;;140.05;73.35;;;;;;;1.31;100.00;99431.71;3991158;85;21094;-91
2022/12/25 20:09:49;;;;;;;137.65;71.47;;;;;;;1.22;100.00;99415.20;4065951;85;21088;-88
2022/12/25 20:15:51;;;;;;;147.28;81.40;;;;;;;1.25;100.00;99424.03;4020639;87;21695;-88
2022/12/25 20:21:57;;;;;;;145.28;75.42;;;;;;;1.29;100.00;99400.19;4058009;86;21106;-88
2022/12/25 20:27:59;;;;;;;116.53;60.48;;;;;;;1.34;100.00;99381.73;4058500;86;21425;-88
2022/12/25 20:34:09;;;;;;;123.07;67.95;;;;;;;1.45;100.00;99388.50;4063104;86;21007;-88
2022/12/25 20:40:12;;;;;;;111.83;61.25;;;;;;;1.48;100.00;99370.34;4039386;86;21004;-88
2022/12/25 20:46:15;;;;;;;120.85;61.80;;;;;;;1.48;100.00;99357.66;4066019;85;21003;-89
2022/12/25 20:52:19;;;;;;;100.45;53.63;;;;;;;1.51;100.00;99356.23;4024807;87;22224;-88
2022/12/25 20:58:24;;;;;;;108.78;58.55;;;;;;;1.44;100.00;99351.84;4065664;86;21899;-89
2022/12/25 21:04:25;;;;;;;113.77;58.25;;;;;;;1.42;100.00;99362.13;4022255;86;21068;-87
2022/12/25 21:10:27;;;;;;;118.53;60.33;;;;;;;1.30;100.00;99347.83;4065155;86;21995;-87
2022/12/25 21:16:31;;;;;;;118.08;56.90;;;;;;;1.27;100.00;99336.31;4042076;87;21025;-88
2022/12/25 21:22:33;;;;;;;98.17;49.08;;;;;;;1.26;100.00;99323.13;4043487;86;21037;-88
2022/12/25 21:28:35;;;;;;;95.45;46.00;;;;;;;1.32;100.00;99329.45;4069035;86;21077;-89
2022/12/25 21:34:39;;;;;;;106.27;54.23;;;;;;;1.32;100.00;99313.81;4070390;86;21227;-88
2022/12/25 21:40:43;;;;;;;106.60;51.80;;;;;;;1.37;100.00;99301.55;4070073;85;21758;-88
2022/12/25 21:46:50;;;;;;;96.00;46.75;;;;;;;1.29;100.00;99293.66;4000189;88;21080;-89
2022/12/25 21:52:51;;;;;;;;;;;;;;;1.28;100.00;99289.91;4040120;86;21074;-88
2022/12/25 21:58:53;;;;;;;103.15;45.40;;;;;;;1.27;100.00;99277.52;4055109;86;20181;-88
2022/12/25 22:04:56;;;;;;;104.20;44.38;;;;;;;1.27;100.00;99259.45;4024224;86;21027;-89
2022/12/25 22:11:03;;;;;;;112.55;45.52;;;;;;;1.27;100.00;99255.40;4028270;86;21082;-88
2022/12/25 22:23:25;;;;;;;116.40;42.73;;;;;;;1.21;100.00;99287.64;4075991;86;21529;-88
2022/12/25 22:29:27;;;;;;;138.05;45.67;;;;;;;1.22;100.00;99274.39;4052193;86;21211;-88
2022/12/25 22:35:29;;;;;;;159.95;47.75;;;;;;;1.27;100.00;99280.21;4045248;87;21113;-88
2022/12/25 22:41:31;;;;;;;90.90;41.30;;;;;;;1.25;100.00;99258.17;4058008;86;21067;-88
2022/12/25 22:47:33;;;;;;;112.22;42.83;;;;;;;1.23;100.00;99253.63;4075737;86;21540;-88
2022/12/25 22:53:36;;;;;;;97.35;42.93;;;;;;;1.22;100.00;99233.17;4111555;85;22502;-88
2022/12/25 22:59:39;;;;;;;92.92;45.38;;;;;;;1.21;100.00;99223.47;4088670;85;21469;-88
2022/12/25 23:05:41;;;;;;;96.00;46.02;;;;;;;1.17;100.00;99228.70;4047647;85;21142;-87
2022/12/25 23:11:43;;;;;;;101.50;46.65;;;;;;;1.12;100.00;99234.22;4112035;85;21066;-87
2022/12/25 23:30:27;;;;;;;87.50;43.65;;;;;;;1.33;100.00;99216.98;4119712;84;21611;-88
2022/12/25 23:36:30;;;;;;;88.70;45.52;;;;;;;1.30;100.00;99194.09;4109089;85;21066;-88
2022/12/25 23:42:32;;;;;;;84.45;43.80;;;;;;;1.32;100.00;99193.78;4112657;84;21105;-88
2022/12/25 23:48:33;;;;;;;89.37;45.10;;;;;;;1.32;100.00;99200.53;4105403;85;21600;-89
2022/12/25 23:54:35;;;;;;;79.77;39.38;;;;;;;1.30;100.00;99190.05;4090331;85;21057;-88
